Valor — WDD8691 — position and weather

sailwx.info

Track history (hours):
 
Tides and Currents Weather Stations Pressure Air Temp Water Temp Dewpoint Dewpoint Depression Visibility Wind Speed Wind Dir Waves Ship Positions

Valor

Owner: Crowley Marine Services, Seattle, WA. More information available from US FCC via Universal Licensing System and Coast Guard Vessel Documentation Center.

Last reported at 2015-Sep-01 21:34 UTC. Time now 2015-Sep-01 22:26 UTC.
Position N 37°55' W 122°25'.

Length 8 m; draft 5.5 m.

Type: Tug. MMSI: 367301480.

Date/timePositionNaut miles runAvg speedWind from/ knotsBaromVisibWave heightAir tempDewpointWater temp
2015-Sep-01 21:34N 37°55' W 122°25'1 1.1
2015-Sep-01 20:34N 37°54' W 122°25'7 7.0
2015-Sep-01 19:33N 37°49' W 122°31'1 1.4
2015-Sep-01 18:33N 37°49' W 122°29'8 8.0
2015-Sep-01 17:34N 37°49' W 122°19'1 0.5
2015-Sep-01 16:33N 37°49' W 122°19'0 0.0
2015-Sep-01 15:33N 37°49' W 122°19'0 0.0
2015-Sep-01 14:33N 37°49' W 122°19'2 1.9
2015-Sep-01 13:34N 37°48' W 122°17'1 1.3
2015-Sep-01 12:33N 37°48' W 122°19'1 1.3
2015-Sep-01 11:33N 37°48' W 122°21'0 0.0
2015-Sep-01 10:33N 37°48' W 122°21'0 0.1
2015-Sep-01 09:33N 37°48' W 122°20'0 0.0
2015-Sep-01 08:33N 37°48' W 122°20'3 2.8
2015-Sep-01 07:34N 37°48' W 122°24'0 0.0
2015-Sep-01 06:33N 37°48' W 122°24'0 0.0
2015-Sep-01 05:34N 37°48' W 122°24'0 0.0
2015-Sep-01 04:34N 37°48' W 122°24'0 0.0
2015-Sep-01 03:34N 37°48' W 122°24'0 0.0
2015-Sep-01 02:33N 37°48' W 122°24'0 0.0
2015-Sep-01 01:33N 37°48' W 122°24'0 0.0
2015-Sep-01 00:33N 37°48' W 122°24'4 4.2
2015-Aug-31 23:33N 37°48' W 122°19'2 1.5
2015-Aug-31 22:34N 37°49' W 122°20'1 1.4
2015-Aug-31 21:33N 37°49' W 122°19'0 0.0
2015-Aug-31 20:33N 37°49' W 122°19'2 2.2
2015-Aug-31 19:33N 37°49' W 122°21'5 5.4
2015-Aug-31 18:34N 37°54' W 122°22'1 0.7
2015-Aug-31 17:33N 37°55' W 122°22'1 1.0
2015-Aug-31 16:33N 37°54' W 122°23'2 2.4
2015-Aug-31 15:34N 37°52' W 122°24'5 4.9
2015-Aug-31 14:33N 37°48' W 122°20'0 0.2
2015-Aug-31 13:33N 37°49' W 122°20'2 2.5
2015-Aug-31 12:33N 37°48' W 122°17'2 1.7
2015-Aug-31 11:34N 37°48' W 122°20'0 0.1
2015-Aug-31 10:34N 37°48' W 122°20'1 0.8
2015-Aug-31 09:33N 37°48' W 122°21'1 1.3
2015-Aug-31 08:33N 37°49' W 122°21'9 8.7
2015-Aug-31 07:33N 37°57' W 122°26'8 8.0
2015-Aug-31 06:33N 38°03' W 122°19'5 2.2
2015-Aug-31 04:26N 38°04' W 122°13'8 2.6
2015-Aug-31 01:30N 38°02' W 122°22'7 7.2
2015-Aug-31 00:33N 37°55' W 122°25'7 7.0
2015-Aug-30 23:33N 37°48' W 122°24'0 0.0
2015-Aug-30 22:33N 37°48' W 122°24'4 4.4
2015-Aug-30 21:33N 37°49' W 122°19'0 0.0
2015-Aug-30 20:34N 37°49' W 122°19'0 0.0
2015-Aug-30 19:33N 37°49' W 122°19'0 0.0
2015-Aug-30 18:33N 37°49' W 122°19'0 0.0
2015-Aug-30 17:33N 37°49' W 122°19'1 0.7
2015-Aug-30 16:33N 37°49' W 122°19'1 1.3
2015-Aug-30 15:32N 37°48' W 122°19'0 0.1
2015-Aug-30 14:33N 37°48' W 122°19'3 2.9
2015-Aug-30 13:34N 37°48' W 122°22'4 3.7
2015-Aug-30 12:33N 37°48' W 122°18'3 3.5
2015-Aug-30 11:33N 37°48' W 122°22'1 1.5
2015-Aug-30 10:33N 37°48' W 122°24'6 5.9
2015-Aug-30 09:33N 37°49' W 122°31'6 6.1
2015-Aug-30 08:33N 37°54' W 122°26'8 8.5
2015-Aug-30 07:33N 38°02' W 122°23'6 5.3
2015-Aug-30 06:28N 38°03' W 122°16'1 0.2
2015-Aug-30 02:25N 38°03' W 122°15'1 0.2
2015-Aug-29 19:24N 38°04' W 122°13'910.4
2015-Aug-29 18:32N 38°01' W 122°24'1010.0
2015-Aug-29 17:33N 37°51' W 122°24'6 5.5
2015-Aug-29 16:33N 37°46' W 122°22'4 4.0
2015-Aug-29 15:33N 37°49' W 122°19'0 0.0
2015-Aug-29 14:34N 37°49' W 122°19'0 0.0
2015-Aug-29 13:33N 37°49' W 122°19'0 0.0
2015-Aug-29 12:33N 37°49' W 122°19'0 0.0
2015-Aug-29 11:33N 37°49' W 122°19'1 1.2
2015-Aug-29 10:33N 37°49' W 122°20'2 2.3
2015-Aug-29 09:33N 37°47' W 122°22'7 6.7
2015-Aug-29 08:33N 37°49' W 122°30'1 1.2
2015-Aug-29 07:33N 37°49' W 122°31'6 6.0
2015-Aug-29 06:33N 37°48' W 122°24'0 0.0
2015-Aug-29 05:33N 37°48' W 122°24'0 0.0
2015-Aug-29 04:33N 37°48' W 122°24'0 0.0
2015-Aug-29 03:33N 37°48' W 122°24'4 4.1
2015-Aug-29 02:33N 37°48' W 122°19'1 0.8
2015-Aug-29 01:33N 37°48' W 122°18'4 3.8
2015-Aug-29 00:34N 37°48' W 122°23'1 1.1
2015-Aug-28 23:33N 37°48' W 122°24'4 4.0
2015-Aug-28 22:33N 37°52' W 122°25'9 9.5
2015-Aug-28 21:33N 38°01' W 122°23'7 7.2
2015-Aug-28 20:33N 37°55' W 122°25'1 1.0
2015-Aug-28 19:33N 37°56' W 122°25'8 8.0
2015-Aug-28 18:33N 37°49' W 122°20'2 1.6
2015-Aug-28 17:33N 37°49' W 122°19'0 0.0
2015-Aug-28 16:33N 37°49' W 122°19'0 0.0
2015-Aug-28 15:33N 37°49' W 122°19'1 0.9
2015-Aug-28 14:33N 37°49' W 122°20'1 1.1
2015-Aug-28 13:33N 37°48' W 122°19'2 2.0
2015-Aug-28 12:33N 37°48' W 122°22'3 2.6
2015-Aug-28 11:33N 37°49' W 122°19'0 0.0
2015-Aug-28 10:33N 37°49' W 122°19'0 0.0
2015-Aug-28 09:33N 37°49' W 122°19'0 0.0
2015-Aug-28 08:34N 37°49' W 122°19'0 0.0
2015-Aug-28 07:34N 37°49' W 122°19'0 0.0
2015-Aug-28 06:34N 37°49' W 122°19'0 0.0
2015-Aug-28 05:33N 37°49' W 122°19'0 0.0
2015-Aug-28 04:33N 37°49' W 122°19'0 0.0
2015-Aug-28 03:33N 37°49' W 122°19'0 0.0
2015-Aug-28 02:33N 37°49' W 122°19'1 1.4
2015-Aug-28 01:34N 37°49' W 122°20'1 0.8
2015-Aug-28 00:33N 37°49' W 122°19'0 0.2
2015-Aug-27 23:33N 37°49' W 122°19'0 0.4
2015-Aug-27 22:33N 37°49' W 122°19'0 0.0
2015-Aug-27 21:33N 37°49' W 122°19'0 0.0
2015-Aug-27 20:33N 37°49' W 122°19'0 0.0
2015-Aug-27 19:33N 37°49' W 122°19'0 0.0
2015-Aug-27 18:33N 37°49' W 122°19'0 0.0
2015-Aug-27 17:33N 37°49' W 122°19'0 0.0
2015-Aug-27 16:33N 37°49' W 122°19'2 2.3
2015-Aug-27 15:33N 37°48' W 122°21'8 8.0
2015-Aug-27 14:33N 37°56' W 122°25'1 0.6
2015-Aug-27 13:33N 37°55' W 122°25'0 0.0
2015-Aug-27 12:33N 37°55' W 122°25'0 0.0
2015-Aug-27 11:33N 37°55' W 122°25'0 0.0
2015-Aug-27 10:33N 37°55' W 122°25'0 0.0
2015-Aug-27 09:33N 37°55' W 122°25'0 0.0
2015-Aug-27 08:33N 37°55' W 122°25'0 0.0
2015-Aug-27 07:33N 37°55' W 122°25'0 0.0
2015-Aug-27 06:33N 37°55' W 122°25'5 5.2
2015-Aug-27 05:33N 38°00' W 122°24'7 7.2
2015-Aug-27 04:33N 38°03' W 122°16'0 0.2
2015-Aug-27 03:34N 38°03' W 122°16'5 5.0
2015-Aug-27 02:33N 38°02' W 122°10'1 0.1
2015-Aug-26 18:13N 38°02' W 122°09'1 1.0
2015-Aug-26 17:12N 38°02' W 122°08'0 0.4
2015-Aug-26 16:13N 38°02' W 122°08'1 0.9
2015-Aug-26 15:32N 38°03' W 122°08'2 0.1
2015-Aug-26 01:32N 38°02' W 122°10'9 8.8
2015-Aug-26 00:30N 38°02' W 122°21'7 7.6
2015-Aug-25 23:33N 37°55' W 122°25'3 2.6
2015-Aug-25 22:33N 37°54' W 122°22'1 0.6
2015-Aug-25 21:33N 37°55' W 122°22'0 0.0
2015-Aug-25 20:33N 37°55' W 122°22'0 0.0
2015-Aug-25 19:33N 37°55' W 122°22'1 1.3
2015-Aug-25 18:33N 37°54' W 122°23'5 4.9
2015-Aug-25 17:33N 37°49' W 122°23'6 6.4
2015-Aug-25 16:33N 37°56' W 122°25'4 4.4
2015-Aug-25 15:33N 37°51' W 122°25'6 5.8
2015-Aug-25 14:33N 37°46' W 122°22'2 2.5
2015-Aug-25 13:33N 37°48' W 122°21'2 1.9
2015-Aug-25 12:33N 37°49' W 122°19'0 0.0
2015-Aug-25 11:33N 37°49' W 122°19'0 0.0
2015-Aug-25 10:33N 37°49' W 122°19'0 0.0
2015-Aug-25 09:33N 37°49' W 122°19'0 0.0
2015-Aug-25 08:34N 37°49' W 122°19'0 0.2
2015-Aug-25 07:33N 37°49' W 122°19'8 7.7
2015-Aug-25 06:33N 37°55' W 122°25'10 9.6
2015-Aug-25 05:33N 38°03' W 122°19'8 7.9
2015-Aug-25 04:33N 38°02' W 122°09'1 0.6
2015-Aug-25 03:33N 38°02' W 122°08'2 1.7
2015-Aug-25 02:31N 38°02' W 122°10'4 3.6
2015-Aug-25 01:26N 38°03' W 122°15'0 0.0
2015-Aug-25 00:33N 38°03' W 122°15'0 0.0
2015-Aug-24 23:31N 38°03' W 122°15'0 0.0
2015-Aug-24 22:32N 38°03' W 122°15'0 0.0
2015-Aug-24 21:26N 38°03' W 122°15'1 0.9
2015-Aug-24 20:33N 38°04' W 122°14'1 0.7
2015-Aug-24 19:23N 38°03' W 122°15'0 0.0
2015-Aug-24 15:33N 38°03' W 122°15'0 0.0
2015-Aug-24 06:26N 38°03' W 122°15'0 0.0
2015-Aug-24 04:27N 38°03' W 122°15'3 1.4
2015-Aug-24 02:07N 38°03' W 122°11'3 3.6
2015-Aug-24 01:11N 38°03' W 122°15'0 0.0
2015-Aug-23 18:33N 38°04' W 122°15'0 0.1
2015-Aug-23 17:33N 38°04' W 122°15'7 7.0
2015-Aug-23 16:33N 38°03' W 122°06'0 0.1
2015-Aug-23 15:32N 38°03' W 122°06'2 1.6
2015-Aug-23 14:34N 38°02' W 122°08'1 0.5
2015-Aug-23 13:28N 38°02' W 122°08'5 5.4
2015-Aug-23 12:29N 38°03' W 122°15'0 0.0
2015-Aug-23 10:31N 38°03' W 122°15'0 0.0
2015-Aug-23 09:23N 38°03' W 122°15'0 0.0
2015-Aug-23 08:30N 38°03' W 122°15'6 5.1
2015-Aug-23 07:14N 38°01' W 122°23'5 8.0
2015-Aug-23 06:33N 37°57' W 122°26'9 8.7
2015-Aug-23 05:33N 37°48' W 122°24'0 0.0
2015-Aug-23 04:33N 37°48' W 122°24'2 1.8
2015-Aug-23 03:33N 37°48' W 122°22'5 4.8
2015-Aug-23 02:33N 37°49' W 122°27'2 2.2
2015-Aug-23 01:33N 37°48' W 122°30'4 3.9
2015-Aug-23 00:33N 37°49' W 122°25'1 1.3
2015-Aug-22 23:33N 37°48' W 122°24'0 0.0
2015-Aug-22 22:33N 37°48' W 122°24'  
Track history (hours):
 
Tides and Currents Weather Stations Pressure Air Temp Water Temp Dewpoint Dewpoint Depression Visibility Wind Speed Wind Dir Waves Ship Positions

Valor

Owner: Crowley Marine Services, Seattle, WA. More information available from US FCC via Universal Licensing System and Coast Guard Vessel Documentation Center.

Last reported at 2015-Sep-01 21:34 UTC. Time now 2015-Sep-01 22:26 UTC.
Position N 37°55' W 122°25'.

Length 8 m; draft 5.5 m.

Type: Tug. MMSI: 367301480.

Date/timePositionNaut miles runAvg speedWind from/ knotsBaromVisibWave heightAir tempDewpointWater temp
2015-Sep-01 21:34N 37°55' W 122°25'1 1.1
2015-Sep-01 20:34N 37°54' W 122°25'7 7.0
2015-Sep-01 19:33N 37°49' W 122°31'1 1.4
2015-Sep-01 18:33N 37°49' W 122°29'8 8.0
2015-Sep-01 17:34N 37°49' W 122°19'1 0.5
2015-Sep-01 16:33N 37°49' W 122°19'0 0.0
2015-Sep-01 15:33N 37°49' W 122°19'0 0.0
2015-Sep-01 14:33N 37°49' W 122°19'2 1.9
2015-Sep-01 13:34N 37°48' W 122°17'1 1.3
2015-Sep-01 12:33N 37°48' W 122°19'1 1.3
2015-Sep-01 11:33N 37°48' W 122°21'0 0.0
2015-Sep-01 10:33N 37°48' W 122°21'0 0.1
2015-Sep-01 09:33N 37°48' W 122°20'0 0.0
2015-Sep-01 08:33N 37°48' W 122°20'3 2.8
2015-Sep-01 07:34N 37°48' W 122°24'0 0.0
2015-Sep-01 06:33N 37°48' W 122°24'0 0.0
2015-Sep-01 05:34N 37°48' W 122°24'0 0.0
2015-Sep-01 04:34N 37°48' W 122°24'0 0.0
2015-Sep-01 03:34N 37°48' W 122°24'0 0.0
2015-Sep-01 02:33N 37°48' W 122°24'0 0.0
2015-Sep-01 01:33N 37°48' W 122°24'0 0.0
2015-Sep-01 00:33N 37°48' W 122°24'4 4.2
2015-Aug-31 23:33N 37°48' W 122°19'2 1.5
2015-Aug-31 22:34N 37°49' W 122°20'1 1.4
2015-Aug-31 21:33N 37°49' W 122°19'0 0.0
2015-Aug-31 20:33N 37°49' W 122°19'2 2.2
2015-Aug-31 19:33N 37°49' W 122°21'5 5.4
2015-Aug-31 18:34N 37°54' W 122°22'1 0.7
2015-Aug-31 17:33N 37°55' W 122°22'1 1.0
2015-Aug-31 16:33N 37°54' W 122°23'2 2.4
2015-Aug-31 15:34N 37°52' W 122°24'5 4.9
2015-Aug-31 14:33N 37°48' W 122°20'0 0.2
2015-Aug-31 13:33N 37°49' W 122°20'2 2.5
2015-Aug-31 12:33N 37°48' W 122°17'2 1.7
2015-Aug-31 11:34N 37°48' W 122°20'0 0.1
2015-Aug-31 10:34N 37°48' W 122°20'1 0.8
2015-Aug-31 09:33N 37°48' W 122°21'1 1.3
2015-Aug-31 08:33N 37°49' W 122°21'9 8.7
2015-Aug-31 07:33N 37°57' W 122°26'8 8.0
2015-Aug-31 06:33N 38°03' W 122°19'5 2.2
2015-Aug-31 04:26N 38°04' W 122°13'8 2.6
2015-Aug-31 01:30N 38°02' W 122°22'7 7.2
2015-Aug-31 00:33N 37°55' W 122°25'7 7.0
2015-Aug-30 23:33N 37°48' W 122°24'0 0.0
2015-Aug-30 22:33N 37°48' W 122°24'4 4.4
2015-Aug-30 21:33N 37°49' W 122°19'0 0.0
2015-Aug-30 20:34N 37°49' W 122°19'0 0.0
2015-Aug-30 19:33N 37°49' W 122°19'0 0.0
2015-Aug-30 18:33N 37°49' W 122°19'0 0.0
2015-Aug-30 17:33N 37°49' W 122°19'1 0.7
2015-Aug-30 16:33N 37°49' W 122°19'1 1.3
2015-Aug-30 15:32N 37°48' W 122°19'0 0.1
2015-Aug-30 14:33N 37°48' W 122°19'3 2.9
2015-Aug-30 13:34N 37°48' W 122°22'4 3.7
2015-Aug-30 12:33N 37°48' W 122°18'3 3.5
2015-Aug-30 11:33N 37°48' W 122°22'1 1.5
2015-Aug-30 10:33N 37°48' W 122°24'6 5.9
2015-Aug-30 09:33N 37°49' W 122°31'6 6.1
2015-Aug-30 08:33N 37°54' W 122°26'8 8.5
2015-Aug-30 07:33N 38°02' W 122°23'6 5.3
2015-Aug-30 06:28N 38°03' W 122°16'1 0.2
2015-Aug-30 02:25N 38°03' W 122°15'1 0.2
2015-Aug-29 19:24N 38°04' W 122°13'910.4
2015-Aug-29 18:32N 38°01' W 122°24'1010.0
2015-Aug-29 17:33N 37°51' W 122°24'6 5.5
2015-Aug-29 16:33N 37°46' W 122°22'4 4.0
2015-Aug-29 15:33N 37°49' W 122°19'0 0.0
2015-Aug-29 14:34N 37°49' W 122°19'0 0.0
2015-Aug-29 13:33N 37°49' W 122°19'0 0.0
2015-Aug-29 12:33N 37°49' W 122°19'0 0.0
2015-Aug-29 11:33N 37°49' W 122°19'1 1.2
2015-Aug-29 10:33N 37°49' W 122°20'2 2.3
2015-Aug-29 09:33N 37°47' W 122°22'7 6.7
2015-Aug-29 08:33N 37°49' W 122°30'1 1.2
2015-Aug-29 07:33N 37°49' W 122°31'6 6.0
2015-Aug-29 06:33N 37°48' W 122°24'0 0.0
2015-Aug-29 05:33N 37°48' W 122°24'0 0.0
2015-Aug-29 04:33N 37°48' W 122°24'0 0.0
2015-Aug-29 03:33N 37°48' W 122°24'4 4.1
2015-Aug-29 02:33N 37°48' W 122°19'1 0.8
2015-Aug-29 01:33N 37°48' W 122°18'4 3.8
2015-Aug-29 00:34N 37°48' W 122°23'1 1.1
2015-Aug-28 23:33N 37°48' W 122°24'4 4.0
2015-Aug-28 22:33N 37°52' W 122°25'9 9.5
2015-Aug-28 21:33N 38°01' W 122°23'7 7.2
2015-Aug-28 20:33N 37°55' W 122°25'1 1.0
2015-Aug-28 19:33N 37°56' W 122°25'8 8.0
2015-Aug-28 18:33N 37°49' W 122°20'2 1.6
2015-Aug-28 17:33N 37°49' W 122°19'0 0.0
2015-Aug-28 16:33N 37°49' W 122°19'0 0.0
2015-Aug-28 15:33N 37°49' W 122°19'1 0.9
2015-Aug-28 14:33N 37°49' W 122°20'1 1.1
2015-Aug-28 13:33N 37°48' W 122°19'2 2.0
2015-Aug-28 12:33N 37°48' W 122°22'3 2.6
2015-Aug-28 11:33N 37°49' W 122°19'0 0.0
2015-Aug-28 10:33N 37°49' W 122°19'0 0.0
2015-Aug-28 09:33N 37°49' W 122°19'0 0.0
2015-Aug-28 08:34N 37°49' W 122°19'0 0.0
2015-Aug-28 07:34N 37°49' W 122°19'0 0.0
2015-Aug-28 06:34N 37°49' W 122°19'0 0.0
2015-Aug-28 05:33N 37°49' W 122°19'0 0.0
2015-Aug-28 04:33N 37°49' W 122°19'0 0.0
2015-Aug-28 03:33N 37°49' W 122°19'0 0.0
2015-Aug-28 02:33N 37°49' W 122°19'1 1.4
2015-Aug-28 01:34N 37°49' W 122°20'1 0.8
2015-Aug-28 00:33N 37°49' W 122°19'0 0.2
2015-Aug-27 23:33N 37°49' W 122°19'0 0.4
2015-Aug-27 22:33N 37°49' W 122°19'0 0.0
2015-Aug-27 21:33N 37°49' W 122°19'0 0.0
2015-Aug-27 20:33N 37°49' W 122°19'0 0.0
2015-Aug-27 19:33N 37°49' W 122°19'0 0.0
2015-Aug-27 18:33N 37°49' W 122°19'0 0.0
2015-Aug-27 17:33N 37°49' W 122°19'0 0.0
2015-Aug-27 16:33N 37°49' W 122°19'2 2.3
2015-Aug-27 15:33N 37°48' W 122°21'8 8.0
2015-Aug-27 14:33N 37°56' W 122°25'1 0.6
2015-Aug-27 13:33N 37°55' W 122°25'0 0.0
2015-Aug-27 12:33N 37°55' W 122°25'0 0.0
2015-Aug-27 11:33N 37°55' W 122°25'0 0.0
2015-Aug-27 10:33N 37°55' W 122°25'0 0.0
2015-Aug-27 09:33N 37°55' W 122°25'0 0.0
2015-Aug-27 08:33N 37°55' W 122°25'0 0.0
2015-Aug-27 07:33N 37°55' W 122°25'0 0.0
2015-Aug-27 06:33N 37°55' W 122°25'5 5.2
2015-Aug-27 05:33N 38°00' W 122°24'7 7.2
2015-Aug-27 04:33N 38°03' W 122°16'0 0.2
2015-Aug-27 03:34N 38°03' W 122°16'5 5.0
2015-Aug-27 02:33N 38°02' W 122°10'1 0.1
2015-Aug-26 18:13N 38°02' W 122°09'1 1.0
2015-Aug-26 17:12N 38°02' W 122°08'0 0.4
2015-Aug-26 16:13N 38°02' W 122°08'1 0.9
2015-Aug-26 15:32N 38°03' W 122°08'2 0.1
2015-Aug-26 01:32N 38°02' W 122°10'9 8.8
2015-Aug-26 00:30N 38°02' W 122°21'7 7.6
2015-Aug-25 23:33N 37°55' W 122°25'3 2.6
2015-Aug-25 22:33N 37°54' W 122°22'1 0.6
2015-Aug-25 21:33N 37°55' W 122°22'0 0.0
2015-Aug-25 20:33N 37°55' W 122°22'0 0.0
2015-Aug-25 19:33N 37°55' W 122°22'1 1.3
2015-Aug-25 18:33N 37°54' W 122°23'5 4.9
2015-Aug-25 17:33N 37°49' W 122°23'6 6.4
2015-Aug-25 16:33N 37°56' W 122°25'4 4.4
2015-Aug-25 15:33N 37°51' W 122°25'6 5.8
2015-Aug-25 14:33N 37°46' W 122°22'2 2.5
2015-Aug-25 13:33N 37°48' W 122°21'2 1.9
2015-Aug-25 12:33N 37°49' W 122°19'0 0.0
2015-Aug-25 11:33N 37°49' W 122°19'0 0.0
2015-Aug-25 10:33N 37°49' W 122°19'0 0.0
2015-Aug-25 09:33N 37°49' W 122°19'0 0.0
2015-Aug-25 08:34N 37°49' W 122°19'0 0.2
2015-Aug-25 07:33N 37°49' W 122°19'8 7.7
2015-Aug-25 06:33N 37°55' W 122°25'10 9.6
2015-Aug-25 05:33N 38°03' W 122°19'8 7.9
2015-Aug-25 04:33N 38°02' W 122°09'1 0.6
2015-Aug-25 03:33N 38°02' W 122°08'2 1.7
2015-Aug-25 02:31N 38°02' W 122°10'4 3.6
2015-Aug-25 01:26N 38°03' W 122°15'0 0.0
2015-Aug-25 00:33N 38°03' W 122°15'0 0.0
2015-Aug-24 23:31N 38°03' W 122°15'0 0.0
2015-Aug-24 22:32N 38°03' W 122°15'0 0.0
2015-Aug-24 21:26N 38°03' W 122°15'1 0.9
2015-Aug-24 20:33N 38°04' W 122°14'1 0.7
2015-Aug-24 19:23N 38°03' W 122°15'0 0.0
2015-Aug-24 15:33N 38°03' W 122°15'0 0.0
2015-Aug-24 06:26N 38°03' W 122°15'0 0.0
2015-Aug-24 04:27N 38°03' W 122°15'3 1.4
2015-Aug-24 02:07N 38°03' W 122°11'3 3.6
2015-Aug-24 01:11N 38°03' W 122°15'0 0.0
2015-Aug-23 18:33N 38°04' W 122°15'0 0.1
2015-Aug-23 17:33N 38°04' W 122°15'7 7.0
2015-Aug-23 16:33N 38°03' W 122°06'0 0.1
2015-Aug-23 15:32N 38°03' W 122°06'2 1.6
2015-Aug-23 14:34N 38°02' W 122°08'1 0.5
2015-Aug-23 13:28N 38°02' W 122°08'5 5.4
2015-Aug-23 12:29N 38°03' W 122°15'0 0.0
2015-Aug-23 10:31N 38°03' W 122°15'0 0.0
2015-Aug-23 09:23N 38°03' W 122°15'0 0.0
2015-Aug-23 08:30N 38°03' W 122°15'6 5.1
2015-Aug-23 07:14N 38°01' W 122°23'5 8.0
2015-Aug-23 06:33N 37°57' W 122°26'9 8.7
2015-Aug-23 05:33N 37°48' W 122°24'0 0.0
2015-Aug-23 04:33N 37°48' W 122°24'2 1.8
2015-Aug-23 03:33N 37°48' W 122°22'5 4.8
2015-Aug-23 02:33N 37°49' W 122°27'2 2.2
2015-Aug-23 01:33N 37°48' W 122°30'4 3.9
2015-Aug-23 00:33N 37°49' W 122°25'1 1.3
2015-Aug-22 23:33N 37°48' W 122°24'0 0.0
2015-Aug-22 22:33N 37°48' W 122°24'  

Dump ship's entire track history